createdAt,value
2019-05-16T00:00:09.458Z,7.00
2019-05-16T00:02:38.170Z,7.00
2019-05-16T00:05:08.393Z,7.00
2019-05-16T00:07:38.870Z,7.10
2019-05-16T00:10:08.394Z,7.10
2019-05-16T00:12:39.842Z,7.00
2019-05-16T00:15:09.114Z,7.00
2019-05-16T00:17:38.722Z,7.00
2019-05-16T00:20:09.320Z,7.00
2019-05-16T00:22:39.480Z,7.10
2019-05-16T00:25:08.756Z,7.00
2019-05-16T00:27:38.545Z,7.00
2019-05-16T00:30:08.987Z,7.00
2019-05-16T00:32:39.035Z,7.00
2019-05-16T00:35:09.143Z,7.00
2019-05-16T00:37:39.037Z,7.00
2019-05-16T00:40:08.374Z,7.00
2019-05-16T00:42:39.188Z,7.00
2019-05-16T00:45:09.346Z,7.00
2019-05-16T00:47:38.968Z,7.00
2019-05-16T00:50:08.910Z,6.90
2019-05-16T00:52:39.385Z,6.90
2019-05-16T00:55:08.596Z,6.90
2019-05-16T00:57:39.029Z,6.90
2019-05-16T01:00:08.334Z,6.90
2019-05-16T01:02:38.158Z,6.90
2019-05-16T01:05:08.549Z,6.90
2019-05-16T01:07:39.280Z,6.80
2019-05-16T01:10:09.210Z,6.80
2019-05-16T01:12:39.048Z,6.80
2019-05-16T01:15:08.027Z,6.80
2019-05-16T01:17:38.800Z,6.80
2019-05-16T01:20:08.557Z,6.80
2019-05-16T01:22:38.546Z,6.80
2019-05-16T01:25:09.317Z,6.80
2019-05-16T01:27:38.589Z,6.80
2019-05-16T01:30:09.136Z,6.80
2019-05-16T01:32:39.102Z,6.80
2019-05-16T01:35:08.443Z,6.80
2019-05-16T01:37:38.452Z,6.80
2019-05-16T01:40:08.648Z,6.80
2019-05-16T01:42:38.518Z,6.80
2019-05-16T01:45:08.726Z,6.80
2019-05-16T01:47:39.379Z,6.80
2019-05-16T01:50:08.794Z,6.80
2019-05-16T01:52:38.244Z,6.90
2019-05-16T01:55:08.259Z,6.90
2019-05-16T01:57:39.226Z,6.80
2019-05-16T02:00:08.440Z,6.80
2019-05-16T02:02:38.637Z,6.80
2019-05-16T02:05:08.577Z,6.80
2019-05-16T02:07:38.731Z,6.80
2019-05-16T02:10:08.953Z,6.80
2019-05-16T02:12:38.419Z,6.80
2019-05-16T02:15:07.952Z,6.80
2019-05-16T02:17:38.387Z,6.80
2019-05-16T02:20:08.641Z,6.80
2019-05-16T02:22:38.947Z,6.80
2019-05-16T02:25:07.914Z,6.80
2019-05-16T02:27:40.669Z,6.80
2019-05-16T02:30:07.594Z,6.80
2019-05-16T02:32:36.634Z,6.80
2019-05-16T02:35:06.491Z,6.80
2019-05-16T02:37:35.427Z,6.80
2019-05-16T02:40:07.235Z,6.80
2019-05-16T02:42:35.929Z,6.80
2019-05-16T02:45:06.808Z,6.90
2019-05-16T02:47:35.516Z,6.90
2019-05-16T02:50:05.240Z,6.90
2019-05-16T02:52:33.924Z,6.90
2019-05-16T02:55:02.650Z,6.90
2019-05-16T02:57:31.811Z,6.80
2019-05-16T03:00:01.567Z,6.90
2019-05-16T03:02:31.340Z,6.90
2019-05-16T03:05:00.987Z,6.90
2019-05-16T03:07:41.124Z,6.80
2019-05-16T03:10:01.516Z,6.90
2019-05-16T03:12:32.938Z,6.90
2019-05-16T03:15:02.519Z,6.80
2019-05-16T03:17:34.286Z,6.80
2019-05-16T03:20:02.971Z,6.80
2019-05-16T03:22:31.825Z,6.80
2019-05-16T03:25:01.292Z,6.80
2019-05-16T03:27:30.731Z,6.80
2019-05-16T03:30:01.737Z,6.80
2019-05-16T03:32:34.235Z,6.80
2019-05-16T03:35:04.933Z,6.80
2019-05-16T03:37:30.930Z,6.80
2019-05-16T03:40:00.561Z,6.80
2019-05-16T03:42:31.111Z,6.80
2019-05-16T03:45:02.068Z,6.80
2019-05-16T03:47:31.304Z,6.80
2019-05-16T03:50:00.794Z,6.80
2019-05-16T03:52:31.083Z,6.70
2019-05-16T03:55:01.580Z,6.70
2019-05-16T03:57:30.695Z,6.70
2019-05-16T04:00:00.554Z,6.80
2019-05-16T04:02:30.927Z,6.70
2019-05-16T04:05:02.205Z,6.80
2019-05-16T04:07:31.933Z,6.80
2019-05-16T04:10:02.226Z,6.80
2019-05-16T04:12:31.268Z,6.80
2019-05-16T04:15:01.909Z,6.80
2019-05-16T04:17:31.721Z,6.80
2019-05-16T04:20:02.061Z,6.90
2019-05-16T04:22:31.869Z,6.90
2019-05-16T04:25:01.880Z,6.90
2019-05-16T04:27:31.195Z,6.90
2019-05-16T04:30:01.614Z,6.90
2019-05-16T04:32:31.478Z,6.90
2019-05-16T04:35:02.665Z,6.90
2019-05-16T04:37:31.567Z,6.90
2019-05-16T04:40:01.596Z,6.90
2019-05-16T04:42:31.230Z,7.00
2019-05-16T04:45:01.213Z,7.00
2019-05-16T04:47:31.678Z,7.00
2019-05-16T04:50:01.600Z,7.10
2019-05-16T04:52:30.933Z,7.10
2019-05-16T04:55:00.731Z,7.10
2019-05-16T04:57:31.328Z,7.10
2019-05-16T05:00:02.226Z,7.20
2019-05-16T05:02:31.057Z,7.20
2019-05-16T05:05:01.177Z,7.10
2019-05-16T05:07:31.259Z,7.20
2019-05-16T05:10:00.808Z,7.20
2019-05-16T05:12:31.490Z,7.20
2019-05-16T05:15:01.314Z,7.20
2019-05-16T05:17:30.921Z,7.20
2019-05-16T05:20:01.070Z,7.20
2019-05-16T05:22:30.429Z,7.30
2019-05-16T05:25:00.110Z,7.30
2019-05-16T05:27:30.310Z,7.30
2019-05-16T05:30:01.011Z,7.40
2019-05-16T05:32:30.622Z,7.40
2019-05-16T05:35:00.002Z,7.40
2019-05-16T05:37:29.866Z,7.50
2019-05-16T05:39:59.988Z,7.50
2019-05-16T05:42:30.636Z,7.60
2019-05-16T05:45:00.305Z,7.70
2019-05-16T05:47:30.733Z,7.80
2019-05-16T05:50:00.613Z,7.80
2019-05-16T05:52:30.354Z,7.90
2019-05-16T05:55:00.642Z,7.90
2019-05-16T05:57:30.159Z,8.00
2019-05-16T06:00:00.535Z,8.20
2019-05-16T06:02:31.040Z,8.20
2019-05-16T06:04:59.817Z,8.30
2019-05-16T06:07:30.010Z,8.50
2019-05-16T06:10:00.418Z,8.70
2019-05-16T06:12:30.408Z,9.00
2019-05-16T06:15:07.981Z,9.30
2019-05-16T06:17:30.696Z,9.60
2019-05-16T06:20:00.279Z,9.70
2019-05-16T06:22:29.857Z,9.80
2019-05-16T06:25:00.930Z,9.90
2019-05-16T06:27:30.205Z,10.10
2019-05-16T06:30:00.486Z,10.30
2019-05-16T06:32:30.440Z,10.50
2019-05-16T06:35:00.040Z,10.50
2019-05-16T06:37:30.841Z,10.70
2019-05-16T06:40:00.679Z,10.90
2019-05-16T06:42:29.918Z,11.00
2019-05-16T06:45:00.580Z,11.10
2019-05-16T06:47:30.492Z,11.20
2019-05-16T06:50:00.428Z,11.20
2019-05-16T06:52:30.135Z,11.30
2019-05-16T06:55:00.723Z,11.40
2019-05-16T06:57:30.208Z,11.40
2019-05-16T07:00:00.622Z,11.50
2019-05-16T07:02:33.689Z,11.50
2019-05-16T07:05:01.023Z,11.50
2019-05-16T07:07:30.827Z,11.60
2019-05-16T07:10:04.177Z,11.70
2019-05-16T07:12:31.506Z,11.80
2019-05-16T07:15:01.669Z,11.90
2019-05-16T07:17:30.664Z,11.80
2019-05-16T07:20:00.783Z,11.50
2019-05-16T07:22:31.258Z,11.40
2019-05-16T07:24:59.845Z,11.30
2019-05-16T07:27:30.686Z,11.20
2019-05-16T07:30:01.006Z,11.20
2019-05-16T07:32:30.226Z,11.10
2019-05-16T07:35:00.311Z,11.10
2019-05-16T07:37:31.442Z,11.20
2019-05-16T07:40:08.480Z,11.20
2019-05-16T07:42:30.745Z,11.20
2019-05-16T07:45:00.672Z,11.40
2019-05-16T07:47:30.943Z,11.50
2019-05-16T07:49:59.628Z,11.50
2019-05-16T07:52:35.193Z,11.50
2019-05-16T07:55:00.250Z,11.60
2019-05-16T07:57:30.551Z,11.80
2019-05-16T08:00:00.175Z,11.90
2019-05-16T08:02:31.088Z,11.90
2019-05-16T08:05:00.774Z,11.90
2019-05-16T08:07:33.225Z,12.00
2019-05-16T08:09:59.900Z,12.00
2019-05-16T08:12:32.780Z,12.00
2019-05-16T08:15:00.752Z,12.10
2019-05-16T08:17:31.310Z,12.10
2019-05-16T08:20:00.021Z,12.30
2019-05-16T08:22:30.613Z,12.40
2019-05-16T08:25:00.151Z,12.30
2019-05-16T08:27:31.379Z,12.40
2019-05-16T08:30:02.157Z,12.50
2019-05-16T08:32:31.142Z,12.50
2019-05-16T08:35:01.134Z,12.70
2019-05-16T08:40:00.357Z,12.70
2019-05-16T08:42:32.358Z,12.90
2019-05-16T08:45:01.826Z,13.00
2019-05-16T08:47:32.140Z,13.10
2019-05-16T08:50:00.698Z,13.30
2019-05-16T08:50:11.923Z,12.70
2019-05-16T08:52:31.510Z,13.30
2019-05-16T08:55:03.091Z,13.40
2019-05-16T08:57:32.640Z,13.40
2019-05-16T09:00:01.372Z,13.50
2019-05-16T09:02:37.090Z,13.60
2019-05-16T09:05:05.215Z,13.60
2019-05-16T09:07:31.828Z,13.80
2019-05-16T09:10:00.460Z,13.80
2019-05-16T09:12:28.915Z,13.70
2019-05-16T09:14:59.390Z,13.80
2019-05-16T09:17:27.854Z,13.90
2019-05-16T09:19:57.657Z,14.00
2019-05-16T09:22:28.209Z,14.10
2019-05-16T09:24:57.638Z,14.20
2019-05-16T09:27:27.275Z,14.30
2019-05-16T09:29:56.804Z,14.30
2019-05-16T09:32:27.955Z,14.30
2019-05-16T09:34:57.320Z,14.40
2019-05-16T09:37:26.777Z,14.50
2019-05-16T09:39:57.278Z,14.50
2019-05-16T09:42:27.566Z,14.70
2019-05-16T09:44:57.770Z,14.70
2019-05-16T09:47:28.306Z,14.80
2019-05-16T09:49:57.790Z,14.90
2019-05-16T09:52:27.301Z,14.90
2019-05-16T09:54:57.740Z,14.80
2019-05-16T09:57:27.850Z,14.90
2019-05-16T09:59:57.217Z,14.90
2019-05-16T10:02:27.357Z,15.00
2019-05-16T10:04:58.008Z,15.10
2019-05-16T10:07:28.345Z,15.10
2019-05-16T10:09:57.119Z,15.10
2019-05-16T10:12:26.290Z,15.20
2019-05-16T10:14:54.910Z,15.30
2019-05-16T10:17:23.317Z,15.30
2019-05-16T10:19:51.728Z,15.10
2019-05-16T10:22:20.179Z,15.20
2019-05-16T10:24:48.587Z,15.30
2019-05-16T10:27:17.309Z,15.40
2019-05-16T10:29:48.533Z,15.50
2019-05-16T10:32:16.753Z,15.50
2019-05-16T10:34:46.743Z,15.60
2019-05-16T10:37:17.566Z,15.40
2019-05-16T10:39:46.906Z,15.50
2019-05-16T10:42:27.220Z,15.50
2019-05-16T10:44:48.262Z,15.50
2019-05-16T10:47:17.248Z,15.70
2019-05-16T10:49:47.530Z,15.90
2019-05-16T10:52:16.673Z,15.80
2019-05-16T10:54:55.347Z,16.00
2019-05-16T10:57:15.469Z,16.20
2019-05-16T11:00:04.151Z,16.30
2019-05-16T11:02:16.533Z,16.30
2019-05-16T11:04:57.278Z,16.40
2019-05-16T11:07:14.256Z,16.60
2019-05-16T11:09:54.789Z,16.70
2019-05-16T11:12:12.768Z,16.80
2019-05-16T11:14:41.207Z,16.90
2019-05-16T11:17:12.937Z,17.10
2019-05-16T11:19:39.702Z,17.20
2019-05-16T11:22:08.149Z,17.00
2019-05-16T11:24:37.709Z,16.80
2019-05-16T11:27:07.568Z,17.10
2019-05-16T11:29:36.634Z,17.10
2019-05-16T11:32:07.174Z,17.30
2019-05-16T11:34:37.373Z,17.40
2019-05-16T11:37:06.941Z,17.50
2019-05-16T11:39:37.118Z,17.60
2019-05-16T11:42:08.055Z,17.70
2019-05-16T11:44:38.107Z,17.60
2019-05-16T11:47:08.287Z,17.70
2019-05-16T11:49:37.553Z,17.90
2019-05-16T11:52:07.277Z,17.90
2019-05-16T11:54:37.347Z,18.00
2019-05-16T11:57:07.481Z,17.90
2019-05-16T11:59:37.349Z,18.00
2019-05-16T12:02:06.058Z,18.10
2019-05-16T12:04:37.293Z,18.30
2019-05-16T12:07:04.801Z,18.40
2019-05-16T12:09:37.337Z,18.10
2019-05-16T12:12:04.505Z,18.20
2019-05-16T12:14:33.196Z,18.30
2019-05-16T12:17:01.694Z,18.40
2019-05-16T12:19:35.522Z,18.40
2019-05-16T12:22:06.872Z,18.40
2019-05-16T12:24:38.772Z,18.50
2019-05-16T12:27:04.462Z,18.40
2019-05-16T12:29:32.905Z,18.20
2019-05-16T12:32:02.964Z,18.20
2019-05-16T12:34:31.421Z,18.30
2019-05-16T12:36:59.838Z,18.00
2019-05-16T12:39:28.256Z,17.90
2019-05-16T12:41:59.117Z,17.60
2019-05-16T12:44:26.975Z,17.80
2019-05-16T12:46:56.929Z,18.10
2019-05-16T12:49:25.525Z,18.20
2019-05-16T12:51:53.974Z,18.30
2019-05-16T12:54:22.407Z,18.40
2019-05-16T12:56:50.882Z,18.60
2019-05-16T12:59:21.629Z,18.60
2019-05-16T13:01:49.398Z,18.60
2019-05-16T13:04:18.987Z,18.70
2019-05-16T13:06:47.891Z,18.80
2019-05-16T13:09:18.441Z,18.50
2019-05-16T13:11:47.287Z,18.20
2019-05-16T13:14:16.892Z,18.20
2019-05-16T13:16:47.401Z,18.30
2019-05-16T13:19:18.133Z,18.40
2019-05-16T13:21:46.937Z,18.60
2019-05-16T13:24:18.298Z,18.70
2019-05-16T13:26:47.656Z,18.80
2019-05-16T13:29:18.102Z,18.90
2019-05-16T13:31:47.830Z,18.80
2019-05-16T13:34:17.817Z,18.70
2019-05-16T13:36:47.433Z,18.90
2019-05-16T13:39:16.981Z,19.00
2019-05-16T13:41:45.665Z,18.90
2019-05-16T13:44:19.974Z,18.80
2019-05-16T13:46:46.601Z,18.70
2019-05-16T13:49:14.771Z,18.40
2019-05-16T13:51:43.356Z,18.40
2019-05-16T13:54:11.780Z,18.40
2019-05-16T13:56:40.191Z,18.40
2019-05-16T13:59:08.730Z,18.20
2019-05-16T14:01:37.165Z,18.10
2019-05-16T14:04:09.845Z,18.30
2019-05-16T14:06:36.795Z,18.40
2019-05-16T14:09:07.497Z,18.40
2019-05-16T14:11:36.582Z,18.50
2019-05-16T14:14:06.599Z,18.50
2019-05-16T14:16:37.531Z,18.40
2019-05-16T14:19:07.370Z,18.00
2019-05-16T14:21:35.197Z,17.90
2019-05-16T14:24:04.700Z,17.90
2019-05-16T14:26:33.195Z,17.90
2019-05-16T14:29:03.330Z,17.90
2019-05-16T14:31:31.764Z,18.00
2019-05-16T14:34:00.180Z,17.90
2019-05-16T14:36:28.652Z,17.80
2019-05-16T14:38:57.596Z,17.90
2019-05-16T14:41:27.932Z,17.90
2019-05-16T14:43:56.263Z,18.00
2019-05-16T14:46:27.225Z,17.80
2019-05-16T14:48:55.277Z,17.60
2019-05-16T14:51:29.345Z,17.40
2019-05-16T14:53:57.340Z,17.30
2019-05-16T14:56:27.170Z,17.20
2019-05-16T14:58:57.667Z,17.30
2019-05-16T15:01:26.693Z,17.10
2019-05-16T15:03:56.500Z,16.90
2019-05-16T15:06:27.349Z,16.70
2019-05-16T15:08:56.757Z,16.60
2019-05-16T15:11:28.044Z,16.50
2019-05-16T15:13:57.471Z,16.50
2019-05-16T15:16:27.332Z,16.40
2019-05-16T15:18:57.550Z,16.30
2019-05-16T15:21:25.876Z,16.20
2019-05-16T15:23:59.354Z,16.10
2019-05-16T15:26:26.854Z,16.00
2019-05-16T15:28:58.358Z,15.90
2019-05-16T15:31:25.183Z,15.90
2019-05-16T15:33:53.615Z,15.80
2019-05-16T15:36:22.060Z,15.80
2019-05-16T15:38:50.494Z,15.70
2019-05-16T15:41:18.908Z,15.70
2019-05-16T15:43:47.364Z,15.70
2019-05-16T15:46:17.442Z,15.80
2019-05-16T15:48:48.814Z,15.70
2019-05-16T15:51:19.031Z,15.70
2019-05-16T15:53:46.505Z,15.70
2019-05-16T15:56:17.651Z,15.60
2019-05-16T15:58:46.665Z,15.50
2019-05-16T16:01:18.255Z,15.50
2019-05-16T16:03:47.372Z,15.40
2019-05-16T16:06:17.556Z,15.40
2019-05-16T16:08:46.998Z,15.40
2019-05-16T16:11:17.186Z,15.30
2019-05-16T16:13:48.398Z,15.30
2019-05-16T16:16:17.463Z,15.20
2019-05-16T16:18:46.834Z,15.10
2019-05-16T16:21:16.642Z,15.10
2019-05-16T16:23:47.383Z,15.00
2019-05-16T16:26:17.774Z,15.00
2019-05-16T16:28:45.877Z,15.00
2019-05-16T16:31:16.609Z,14.90
2019-05-16T16:33:44.367Z,14.70
2019-05-16T16:36:13.185Z,14.60
2019-05-16T16:38:41.599Z,14.50
2019-05-16T16:41:10.038Z,14.40
2019-05-16T16:43:38.487Z,14.40
2019-05-16T16:46:12.874Z,14.30
2019-05-16T16:48:38.063Z,14.20
2019-05-16T16:51:07.292Z,14.10
2019-05-16T16:53:37.718Z,14.20
2019-05-16T16:56:07.529Z,14.10
2019-05-16T16:58:37.293Z,14.00
2019-05-16T17:01:07.348Z,13.90
2019-05-16T17:03:36.477Z,13.90
2019-05-16T17:06:05.030Z,13.90
2019-05-16T17:08:33.464Z,13.80
2019-05-16T17:11:01.974Z,13.80
2019-05-16T17:13:30.475Z,13.90
2019-05-16T17:15:58.901Z,13.90
2019-05-16T17:18:27.710Z,13.90
2019-05-16T17:20:57.019Z,14.00
2019-05-16T17:23:26.446Z,14.00
2019-05-16T17:25:56.880Z,14.20
2019-05-16T17:28:25.348Z,14.20
2019-05-16T17:30:53.784Z,14.10
2019-05-16T17:33:23.855Z,14.00
2019-05-16T17:35:52.303Z,13.90
2019-05-16T17:38:20.723Z,14.00
2019-05-16T17:40:49.143Z,13.90
2019-05-16T17:43:17.604Z,14.00
2019-05-16T17:45:47.045Z,14.00
2019-05-16T17:48:17.525Z,13.90
2019-05-16T17:50:46.821Z,13.90
2019-05-16T17:53:17.324Z,13.80
2019-05-16T17:55:47.283Z,13.70
2019-05-16T17:58:16.513Z,13.70
2019-05-16T18:00:47.144Z,13.70
2019-05-16T18:03:17.361Z,13.80
2019-05-16T18:05:47.537Z,13.70
2019-05-16T18:08:15.651Z,13.80
2019-05-16T18:10:44.135Z,13.70
2019-05-16T18:13:12.615Z,13.60
2019-05-16T18:15:41.073Z,13.70
2019-05-16T18:18:09.492Z,13.60
2019-05-16T18:20:37.927Z,13.70
2019-05-16T18:23:07.101Z,13.70
2019-05-16T18:25:36.494Z,13.60
2019-05-16T18:28:07.806Z,13.60
2019-05-16T18:30:36.741Z,13.70
2019-05-16T18:33:07.401Z,13.60
2019-05-16T18:35:37.104Z,13.70
2019-05-16T18:38:07.231Z,13.80
2019-05-16T18:40:36.702Z,13.80
2019-05-16T18:43:08.075Z,13.80
2019-05-16T18:45:36.679Z,13.70
2019-05-16T18:48:07.341Z,13.70
2019-05-16T18:50:37.713Z,13.60
2019-05-16T18:53:07.373Z,13.60
2019-05-16T18:55:37.126Z,13.60
2019-05-16T18:58:08.496Z,13.50
2019-05-16T19:00:37.641Z,13.40
2019-05-16T19:03:07.776Z,13.30
2019-05-16T19:05:37.306Z,13.30
2019-05-16T19:08:07.324Z,13.30
2019-05-16T19:10:36.788Z,13.30
2019-05-16T19:13:08.000Z,13.40
2019-05-16T19:15:37.425Z,13.40
2019-05-16T19:18:06.696Z,13.30
2019-05-16T19:20:37.440Z,13.30
2019-05-16T19:23:07.295Z,13.10
2019-05-16T19:25:35.549Z,13.10
2019-05-16T19:28:06.539Z,13.10
2019-05-16T19:30:34.131Z,13.10
2019-05-16T19:33:02.550Z,13.00
2019-05-16T19:35:31.050Z,12.90
2019-05-16T19:37:59.480Z,12.90
2019-05-16T19:40:27.907Z,12.90
2019-05-16T19:42:56.642Z,12.90
2019-05-16T19:45:26.430Z,12.90
2019-05-16T19:47:57.230Z,12.90
2019-05-16T19:50:26.744Z,12.80
2019-05-16T19:52:56.718Z,12.60
2019-05-16T19:55:27.010Z,12.60
2019-05-16T19:57:57.280Z,12.50
2019-05-16T20:00:26.596Z,12.40
2019-05-16T20:02:56.980Z,12.30
2019-05-16T20:05:26.636Z,12.20
2019-05-16T20:07:55.825Z,12.10
2019-05-16T20:10:24.227Z,12.10
2019-05-16T20:12:52.677Z,11.90
2019-05-16T20:15:21.099Z,11.80
2019-05-16T20:17:57.788Z,11.70
2019-05-16T20:20:19.644Z,11.60
2019-05-16T20:22:48.054Z,11.70
2019-05-16T20:25:16.549Z,11.70
2019-05-16T20:27:46.933Z,11.80
2019-05-16T20:30:17.129Z,11.80
2019-05-16T20:32:45.239Z,11.70
2019-05-16T20:35:13.694Z,11.60
2019-05-16T20:37:42.112Z,11.40
2019-05-16T20:40:12.538Z,11.40
2019-05-16T20:42:40.650Z,11.40
2019-05-16T20:45:09.346Z,11.30
2019-05-16T20:47:37.771Z,11.20
2019-05-16T20:50:07.808Z,11.20
2019-05-16T20:52:37.866Z,11.10
2019-05-16T20:55:07.168Z,11.00
2019-05-16T20:57:37.738Z,10.90
2019-05-16T21:00:07.155Z,10.80
2019-05-16T21:02:37.710Z,10.80
2019-05-16T21:05:06.668Z,10.80
2019-05-16T21:07:37.344Z,10.70
2019-05-16T21:10:08.013Z,10.60
2019-05-16T21:12:40.056Z,10.60
2019-05-16T21:15:07.310Z,10.60
2019-05-16T21:17:35.665Z,10.60
2019-05-16T21:20:04.167Z,10.60
2019-05-16T21:22:32.582Z,10.50
2019-05-16T21:25:01.006Z,10.40
2019-05-16T21:27:29.464Z,10.40
2019-05-16T21:29:57.883Z,10.40
2019-05-16T21:32:27.039Z,10.40
2019-05-16T21:34:56.583Z,10.50
2019-05-16T21:37:26.901Z,10.50
2019-05-16T21:39:59.382Z,10.50
2019-05-16T21:42:27.053Z,10.50
2019-05-16T21:44:57.099Z,10.40
2019-05-16T21:47:27.511Z,10.50
2019-05-16T21:49:56.819Z,10.40
2019-05-16T21:52:28.426Z,10.40
2019-05-16T21:54:56.552Z,10.40
2019-05-16T21:57:26.794Z,10.40
2019-05-16T21:59:57.145Z,10.30
2019-05-16T22:02:26.601Z,10.20
2019-05-16T22:04:56.901Z,10.20
2019-05-16T22:07:33.173Z,10.20
2019-05-16T22:09:56.993Z,10.10
2019-05-16T22:12:26.428Z,10.00
2019-05-16T22:14:57.229Z,10.00
2019-05-16T22:17:27.380Z,10.00
2019-05-16T22:19:56.362Z,9.90
2019-05-16T22:22:27.592Z,9.90
2019-05-16T22:24:57.227Z,9.90
2019-05-16T22:27:26.906Z,9.80
2019-05-16T22:29:56.729Z,9.80
2019-05-16T22:32:27.204Z,9.80
2019-05-16T22:34:59.522Z,9.80
2019-05-16T22:37:26.569Z,9.70
2019-05-16T22:39:57.259Z,9.60
2019-05-16T22:42:26.773Z,9.50
2019-05-16T22:44:55.303Z,9.50
2019-05-16T22:47:26.475Z,9.50
2019-05-16T22:49:53.979Z,9.60
2019-05-16T22:52:22.400Z,9.50
2019-05-16T22:54:50.843Z,9.50
2019-05-16T22:57:19.253Z,9.50
2019-05-16T22:59:47.667Z,9.40
2019-05-16T23:02:16.894Z,9.40
2019-05-16T23:04:47.318Z,9.40
2019-05-16T23:07:16.466Z,9.40
2019-05-16T23:09:47.052Z,9.40
2019-05-16T23:12:17.170Z,9.40
2019-05-16T23:14:46.279Z,9.40
2019-05-16T23:17:17.087Z,9.30
2019-05-16T23:19:47.291Z,9.30
2019-05-16T23:22:16.718Z,9.20
2019-05-16T23:24:46.386Z,9.20
2019-05-16T23:27:15.203Z,9.20
2019-05-16T23:29:43.611Z,9.10
2019-05-16T23:32:12.050Z,9.10
2019-05-16T23:34:40.743Z,9.00
2019-05-16T23:37:09.156Z,9.00
2019-05-16T23:39:37.965Z,9.00
2019-05-16T23:42:06.543Z,9.00
2019-05-16T23:44:36.673Z,9.00
2019-05-16T23:47:07.072Z,8.90
2019-05-16T23:49:36.656Z,8.90
2019-05-16T23:52:07.452Z,8.90
2019-05-16T23:54:36.892Z,8.80
2019-05-16T23:57:06.566Z,8.80
2019-05-16T23:59:36.923Z,8.80
